sensor_id;sensor_type;location;lat;lon;timestamp;P1;durP1;ratioP1;P2;durP2;ratioP2
49962;SDS011;36180;57.678;11.910;2023-05-02T00:00:46;1.25;;;1.08;;
49962;SDS011;36180;57.678;11.910;2023-05-02T00:03:14;2.00;;;1.00;;
49962;SDS011;36180;57.678;11.910;2023-05-02T00:05:43;1.70;;;1.10;;
49962;SDS011;36180;57.678;11.910;2023-05-02T00:08:11;1.00;;;0.90;;
49962;SDS011;36180;57.678;11.910;2023-05-02T00:10:38;0.90;;;0.90;;
49962;SDS011;36180;57.678;11.910;2023-05-02T00:13:05;0.80;;;0.80;;
49962;SDS011;36180;57.678;11.910;2023-05-02T00:15:32;1.05;;;0.98;;
49962;SDS011;36180;57.678;11.910;2023-05-02T00:17:59;0.90;;;0.80;;
49962;SDS011;36180;57.678;11.910;2023-05-02T00:20:26;1.98;;;0.93;;
49962;SDS011;36180;57.678;11.910;2023-05-02T00:22:54;0.68;;;0.68;;
49962;SDS011;36180;57.678;11.910;2023-05-02T00:25:23;1.15;;;0.80;;
49962;SDS011;36180;57.678;11.910;2023-05-02T00:27:50;0.80;;;0.80;;
49962;SDS011;36180;57.678;11.910;2023-05-02T00:30:17;0.90;;;0.77;;
49962;SDS011;36180;57.678;11.910;2023-05-02T00:32:45;0.80;;;0.80;;
49962;SDS011;36180;57.678;11.910;2023-05-02T00:35:12;1.05;;;0.95;;
49962;SDS011;36180;57.678;11.910;2023-05-02T00:37:39;1.35;;;1.10;;
49962;SDS011;36180;57.678;11.910;2023-05-02T00:40:06;0.93;;;0.82;;
49962;SDS011;36180;57.678;11.910;2023-05-02T00:42:35;1.23;;;0.88;;
49962;SDS011;36180;57.678;11.910;2023-05-02T00:45:03;0.80;;;0.80;;
49962;SDS011;36180;57.678;11.910;2023-05-02T00:47:30;1.67;;;1.00;;
49962;SDS011;36180;57.678;11.910;2023-05-02T00:49:58;1.30;;;1.05;;
49962;SDS011;36180;57.678;11.910;2023-05-02T00:52:25;2.08;;;1.10;;
49962;SDS011;36180;57.678;11.910;2023-05-02T00:54:53;2.40;;;0.95;;
49962;SDS011;36180;57.678;11.910;2023-05-02T00:57:20;1.20;;;1.08;;
49962;SDS011;36180;57.678;11.910;2023-05-02T00:59:49;2.00;;;1.15;;
49962;SDS011;36180;57.678;11.910;2023-05-02T01:02:21;1.30;;;1.20;;
49962;SDS011;36180;57.678;11.910;2023-05-02T01:04:59;2.55;;;1.50;;
49962;SDS011;36180;57.678;11.910;2023-05-02T01:10:03;1.42;;;1.23;;
49962;SDS011;36180;57.678;11.910;2023-05-02T01:12:36;2.42;;;1.40;;
49962;SDS011;36180;57.678;11.910;2023-05-02T01:15:10;1.58;;;1.30;;
49962;SDS011;36180;57.678;11.910;2023-05-02T01:17:40;1.48;;;1.38;;
49962;SDS011;36180;57.678;11.910;2023-05-02T01:20:09;1.77;;;1.45;;
49962;SDS011;36180;57.678;11.910;2023-05-02T01:22:38;3.83;;;2.33;;
49962;SDS011;36180;57.678;11.910;2023-05-02T01:25:08;3.70;;;1.92;;
49962;SDS011;36180;57.678;11.910;2023-05-02T01:27:42;3.40;;;1.70;;
49962;SDS011;36180;57.678;11.910;2023-05-02T01:30:17;2.22;;;1.60;;
49962;SDS011;36180;57.678;11.910;2023-05-02T01:32:46;2.05;;;1.75;;
49962;SDS011;36180;57.678;11.910;2023-05-02T01:35:13;3.75;;;1.80;;
49962;SDS011;36180;57.678;11.910;2023-05-02T01:37:42;3.15;;;2.35;;
49962;SDS011;36180;57.678;11.910;2023-05-02T01:40:10;2.83;;;2.20;;
49962;SDS011;36180;57.678;11.910;2023-05-02T01:42:39;2.47;;;2.10;;
49962;SDS011;36180;57.678;11.910;2023-05-02T01:45:08;2.53;;;1.90;;
49962;SDS011;36180;57.678;11.910;2023-05-02T01:47:39;2.80;;;2.05;;
49962;SDS011;36180;57.678;11.910;2023-05-02T01:50:06;3.88;;;2.20;;
49962;SDS011;36180;57.678;11.910;2023-05-02T01:52:35;3.00;;;2.08;;
49962;SDS011;36180;57.678;11.910;2023-05-02T01:55:02;3.85;;;1.95;;
49962;SDS011;36180;57.678;11.910;2023-05-02T01:57:32;3.30;;;2.20;;
49962;SDS011;36180;57.678;11.910;2023-05-02T02:00:01;3.72;;;2.53;;
49962;SDS011;36180;57.678;11.910;2023-05-02T02:02:39;4.03;;;2.22;;
49962;SDS011;36180;57.678;11.910;2023-05-02T02:05:07;2.83;;;2.53;;
49962;SDS011;36180;57.678;11.910;2023-05-02T02:07:35;3.35;;;2.30;;
49962;SDS011;36180;57.678;11.910;2023-05-02T02:10:03;4.00;;;2.58;;
49962;SDS011;36180;57.678;11.910;2023-05-02T02:12:31;3.33;;;2.80;;
49962;SDS011;36180;57.678;11.910;2023-05-02T02:15:02;4.88;;;2.58;;
49962;SDS011;36180;57.678;11.910;2023-05-02T02:17:35;3.50;;;2.60;;
49962;SDS011;36180;57.678;11.910;2023-05-02T02:20:06;4.22;;;2.70;;
49962;SDS011;36180;57.678;11.910;2023-05-02T02:22:36;4.13;;;2.70;;
49962;SDS011;36180;57.678;11.910;2023-05-02T02:25:05;3.03;;;2.67;;
49962;SDS011;36180;57.678;11.910;2023-05-02T02:27:34;6.13;;;3.33;;
49962;SDS011;36180;57.678;11.910;2023-05-02T02:30:02;4.43;;;2.72;;
49962;SDS011;36180;57.678;11.910;2023-05-02T02:32:29;3.17;;;2.53;;
49962;SDS011;36180;57.678;11.910;2023-05-02T02:34:59;3.08;;;2.40;;
49962;SDS011;36180;57.678;11.910;2023-05-02T02:37:29;4.35;;;2.70;;
49962;SDS011;36180;57.678;11.910;2023-05-02T02:39:59;4.28;;;2.90;;
49962;SDS011;36180;57.678;11.910;2023-05-02T02:42:32;3.45;;;3.05;;
49962;SDS011;36180;57.678;11.910;2023-05-02T02:45:08;4.03;;;2.88;;
49962;SDS011;36180;57.678;11.910;2023-05-02T02:47:43;5.35;;;3.05;;
49962;SDS011;36180;57.678;11.910;2023-05-02T02:50:23;4.50;;;3.30;;
49962;SDS011;36180;57.678;11.910;2023-05-02T02:52:58;3.90;;;3.00;;
49962;SDS011;36180;57.678;11.910;2023-05-02T02:55:30;4.22;;;3.17;;
49962;SDS011;36180;57.678;11.910;2023-05-02T02:58:05;5.55;;;3.10;;
49962;SDS011;36180;57.678;11.910;2023-05-02T03:00:38;4.63;;;3.22;;
49962;SDS011;36180;57.678;11.910;2023-05-02T03:03:06;4.93;;;3.30;;
49962;SDS011;36180;57.678;11.910;2023-05-02T03:05:33;4.82;;;3.47;;
49962;SDS011;36180;57.678;11.910;2023-05-02T03:08:01;6.53;;;3.30;;
49962;SDS011;36180;57.678;11.910;2023-05-02T03:10:29;4.03;;;3.25;;
49962;SDS011;36180;57.678;11.910;2023-05-02T03:12:58;5.05;;;3.28;;
49962;SDS011;36180;57.678;11.910;2023-05-02T03:15:35;5.07;;;3.03;;
49962;SDS011;36180;57.678;11.910;2023-05-02T03:18:28;8.52;;;3.40;;
49962;SDS011;36180;57.678;11.910;2023-05-02T03:20:56;3.88;;;3.05;;
49962;SDS011;36180;57.678;11.910;2023-05-02T03:23:25;4.65;;;3.33;;
49962;SDS011;36180;57.678;11.910;2023-05-02T03:25:53;4.18;;;2.95;;
49962;SDS011;36180;57.678;11.910;2023-05-02T03:28:23;4.22;;;2.97;;
49962;SDS011;36180;57.678;11.910;2023-05-02T03:30:51;5.13;;;3.03;;
49962;SDS011;36180;57.678;11.910;2023-05-02T03:33:20;4.53;;;2.95;;
49962;SDS011;36180;57.678;11.910;2023-05-02T03:35:48;4.40;;;3.42;;
49962;SDS011;36180;57.678;11.910;2023-05-02T03:38:15;5.30;;;2.88;;
49962;SDS011;36180;57.678;11.910;2023-05-02T03:40:46;5.32;;;3.55;;
49962;SDS011;36180;57.678;11.910;2023-05-02T03:43:13;5.60;;;2.95;;
49962;SDS011;36180;57.678;11.910;2023-05-02T03:45:41;4.35;;;2.83;;
49962;SDS011;36180;57.678;11.910;2023-05-02T03:48:08;4.53;;;2.92;;
49962;SDS011;36180;57.678;11.910;2023-05-02T03:50:36;4.18;;;3.03;;
49962;SDS011;36180;57.678;11.910;2023-05-02T03:53:04;4.05;;;3.05;;
49962;SDS011;36180;57.678;11.910;2023-05-02T03:55:40;7.32;;;3.83;;
49962;SDS011;36180;57.678;11.910;2023-05-02T04:00:42;5.78;;;3.30;;
49962;SDS011;36180;57.678;11.910;2023-05-02T04:03:10;4.40;;;3.58;;
49962;SDS011;36180;57.678;11.910;2023-05-02T04:05:40;5.30;;;3.47;;
49962;SDS011;36180;57.678;11.910;2023-05-02T04:08:09;7.20;;;3.65;;
49962;SDS011;36180;57.678;11.910;2023-05-02T04:10:37;5.25;;;3.42;;
49962;SDS011;36180;57.678;11.910;2023-05-02T04:13:07;4.30;;;3.28;;
49962;SDS011;36180;57.678;11.910;2023-05-02T04:15:38;5.97;;;3.50;;
49962;SDS011;36180;57.678;11.910;2023-05-02T04:18:06;5.03;;;3.25;;
49962;SDS011;36180;57.678;11.910;2023-05-02T04:20:35;4.78;;;3.45;;
49962;SDS011;36180;57.678;11.910;2023-05-02T04:23:02;6.90;;;3.83;;
49962;SDS011;36180;57.678;11.910;2023-05-02T04:25:30;7.18;;;3.42;;
49962;SDS011;36180;57.678;11.910;2023-05-02T04:28:01;7.22;;;3.70;;
49962;SDS011;36180;57.678;11.910;2023-05-02T04:30:28;9.40;;;3.65;;
49962;SDS011;36180;57.678;11.910;2023-05-02T04:33:02;9.88;;;4.50;;
49962;SDS011;36180;57.678;11.910;2023-05-02T04:35:33;6.93;;;3.85;;
49962;SDS011;36180;57.678;11.910;2023-05-02T04:38:02;5.82;;;3.53;;
49962;SDS011;36180;57.678;11.910;2023-05-02T04:40:30;5.32;;;3.90;;
49962;SDS011;36180;57.678;11.910;2023-05-02T04:43:02;6.22;;;3.90;;
49962;SDS011;36180;57.678;11.910;2023-05-02T04:45:37;5.25;;;3.75;;
49962;SDS011;36180;57.678;11.910;2023-05-02T04:48:11;5.53;;;3.40;;
49962;SDS011;36180;57.678;11.910;2023-05-02T04:50:39;6.70;;;3.30;;
49962;SDS011;36180;57.678;11.910;2023-05-02T04:53:06;7.20;;;3.60;;
49962;SDS011;36180;57.678;11.910;2023-05-02T04:55:33;5.25;;;3.72;;
49962;SDS011;36180;57.678;11.910;2023-05-02T04:58:01;5.72;;;3.22;;
49962;SDS011;36180;57.678;11.910;2023-05-02T05:00:29;6.15;;;3.20;;
49962;SDS011;36180;57.678;11.910;2023-05-02T05:02:56;8.25;;;3.42;;
49962;SDS011;36180;57.678;11.910;2023-05-02T05:05:25;6.15;;;2.83;;
49962;SDS011;36180;57.678;11.910;2023-05-02T05:07:52;6.90;;;2.92;;
49962;SDS011;36180;57.678;11.910;2023-05-02T05:10:22;5.65;;;2.92;;
49962;SDS011;36180;57.678;11.910;2023-05-02T05:12:49;5.93;;;3.10;;
49962;SDS011;36180;57.678;11.910;2023-05-02T05:15:17;5.30;;;3.22;;
49962;SDS011;36180;57.678;11.910;2023-05-02T05:17:51;7.20;;;3.60;;
49962;SDS011;36180;57.678;11.910;2023-05-02T05:20:18;5.57;;;3.30;;
49962;SDS011;36180;57.678;11.910;2023-05-02T05:22:49;7.15;;;3.38;;
49962;SDS011;36180;57.678;11.910;2023-05-02T05:25:18;8.55;;;3.33;;
49962;SDS011;36180;57.678;11.910;2023-05-02T05:27:47;5.18;;;3.20;;
49962;SDS011;36180;57.678;11.910;2023-05-02T05:30:16;4.82;;;2.85;;
49962;SDS011;36180;57.678;11.910;2023-05-02T05:32:44;5.40;;;3.00;;
49962;SDS011;36180;57.678;11.910;2023-05-02T05:35:11;9.15;;;3.38;;
49962;SDS011;36180;57.678;11.910;2023-05-02T05:37:39;6.60;;;3.13;;
49962;SDS011;36180;57.678;11.910;2023-05-02T05:40:10;5.45;;;3.13;;
49962;SDS011;36180;57.678;11.910;2023-05-02T05:45:14;4.55;;;2.83;;
49962;SDS011;36180;57.678;11.910;2023-05-02T05:47:44;3.83;;;2.92;;
49962;SDS011;36180;57.678;11.910;2023-05-02T05:50:11;5.18;;;3.00;;
49962;SDS011;36180;57.678;11.910;2023-05-02T05:52:39;4.50;;;2.95;;
49962;SDS011;36180;57.678;11.910;2023-05-02T05:55:07;3.92;;;2.58;;
49962;SDS011;36180;57.678;11.910;2023-05-02T05:57:36;4.88;;;2.70;;
49962;SDS011;36180;57.678;11.910;2023-05-02T06:00:04;5.68;;;2.67;;
49962;SDS011;36180;57.678;11.910;2023-05-02T06:02:40;5.22;;;2.92;;
49962;SDS011;36180;57.678;11.910;2023-05-02T06:05:14;5.10;;;2.70;;
49962;SDS011;36180;57.678;11.910;2023-05-02T06:07:41;5.35;;;2.85;;
49962;SDS011;36180;57.678;11.910;2023-05-02T06:10:09;9.88;;;3.05;;
49962;SDS011;36180;57.678;11.910;2023-05-02T06:12:40;6.50;;;2.35;;
49962;SDS011;36180;57.678;11.910;2023-05-02T06:15:09;3.45;;;2.53;;
49962;SDS011;36180;57.678;11.910;2023-05-02T06:17:37;4.63;;;2.80;;
49962;SDS011;36180;57.678;11.910;2023-05-02T06:20:05;3.92;;;3.03;;
49962;SDS011;36180;57.678;11.910;2023-05-02T06:22:33;5.97;;;2.80;;
49962;SDS011;36180;57.678;11.910;2023-05-02T06:25:01;5.93;;;2.58;;
49962;SDS011;36180;57.678;11.910;2023-05-02T06:27:29;4.25;;;2.25;;
49962;SDS011;36180;57.678;11.910;2023-05-02T06:29:58;4.63;;;2.67;;
49962;SDS011;36180;57.678;11.910;2023-05-02T06:32:28;5.38;;;2.78;;
49962;SDS011;36180;57.678;11.910;2023-05-02T06:34:56;6.20;;;2.80;;
49962;SDS011;36180;57.678;11.910;2023-05-02T06:37:23;8.07;;;2.85;;
49962;SDS011;36180;57.678;11.910;2023-05-02T06:39:50;3.38;;;2.63;;
49962;SDS011;36180;57.678;11.910;2023-05-02T06:42:17;6.28;;;2.78;;
49962;SDS011;36180;57.678;11.910;2023-05-02T06:44:44;4.30;;;3.03;;
49962;SDS011;36180;57.678;11.910;2023-05-02T06:47:12;3.58;;;2.40;;
49962;SDS011;36180;57.678;11.910;2023-05-02T06:49:40;3.90;;;2.15;;
49962;SDS011;36180;57.678;11.910;2023-05-02T06:52:07;5.43;;;2.30;;
49962;SDS011;36180;57.678;11.910;2023-05-02T06:54:34;3.50;;;2.08;;
49962;SDS011;36180;57.678;11.910;2023-05-02T06:57:01;3.42;;;2.10;;
49962;SDS011;36180;57.678;11.910;2023-05-02T06:59:28;3.08;;;2.35;;
49962;SDS011;36180;57.678;11.910;2023-05-02T07:01:55;3.05;;;2.20;;
49962;SDS011;36180;57.678;11.910;2023-05-02T07:04:24;5.40;;;2.20;;
49962;SDS011;36180;57.678;11.910;2023-05-02T07:06:51;5.55;;;3.55;;
49962;SDS011;36180;57.678;11.910;2023-05-02T07:09:18;4.38;;;2.42;;
49962;SDS011;36180;57.678;11.910;2023-05-02T07:11:45;6.07;;;2.63;;
49962;SDS011;36180;57.678;11.910;2023-05-02T07:14:12;7.93;;;2.13;;
49962;SDS011;36180;57.678;11.910;2023-05-02T07:16:39;3.70;;;2.00;;
49962;SDS011;36180;57.678;11.910;2023-05-02T07:19:06;2.70;;;1.75;;
49962;SDS011;36180;57.678;11.910;2023-05-02T07:21:35;4.00;;;2.15;;
49962;SDS011;36180;57.678;11.910;2023-05-02T07:24:02;3.85;;;2.00;;
49962;SDS011;36180;57.678;11.910;2023-05-02T07:26:30;2.42;;;1.70;;
49962;SDS011;36180;57.678;11.910;2023-05-02T07:28:57;2.55;;;1.67;;
49962;SDS011;36180;57.678;11.910;2023-05-02T07:31:24;2.90;;;1.98;;
49962;SDS011;36180;57.678;11.910;2023-05-02T07:33:51;6.13;;;2.20;;
49962;SDS011;36180;57.678;11.910;2023-05-02T07:36:18;2.83;;;1.55;;
49962;SDS011;36180;57.678;11.910;2023-05-02T07:38:46;2.03;;;1.75;;
49962;SDS011;36180;57.678;11.910;2023-05-02T07:41:13;2.22;;;1.40;;
49962;SDS011;36180;57.678;11.910;2023-05-02T07:43:40;2.85;;;1.40;;
49962;SDS011;36180;57.678;11.910;2023-05-02T07:46:07;2.40;;;1.30;;
49962;SDS011;36180;57.678;11.910;2023-05-02T07:48:35;2.13;;;1.27;;
49962;SDS011;36180;57.678;11.910;2023-05-02T07:51:05;2.08;;;1.25;;
49962;SDS011;36180;57.678;11.910;2023-05-02T07:53:32;3.05;;;1.35;;
49962;SDS011;36180;57.678;11.910;2023-05-02T07:56:07;2.90;;;1.60;;
49962;SDS011;36180;57.678;11.910;2023-05-02T07:58:34;4.57;;;1.88;;
49962;SDS011;36180;57.678;11.910;2023-05-02T08:01:01;3.47;;;1.73;;
49962;SDS011;36180;57.678;11.910;2023-05-02T08:03:29;4.70;;;1.85;;
49962;SDS011;36180;57.678;11.910;2023-05-02T08:05:56;5.75;;;1.90;;
49962;SDS011;36180;57.678;11.910;2023-05-02T08:08:23;1.52;;;1.20;;
49962;SDS011;36180;57.678;11.910;2023-05-02T08:10:50;1.77;;;1.20;;
49962;SDS011;36180;57.678;11.910;2023-05-02T08:13:19;3.35;;;1.10;;
49962;SDS011;36180;57.678;11.910;2023-05-02T08:15:46;5.28;;;1.50;;
49962;SDS011;36180;57.678;11.910;2023-05-02T08:18:13;1.67;;;1.25;;
49962;SDS011;36180;57.678;11.910;2023-05-02T08:20:40;3.50;;;1.23;;
49962;SDS011;36180;57.678;11.910;2023-05-02T08:23:09;2.58;;;1.30;;
49962;SDS011;36180;57.678;11.910;2023-05-02T08:25:36;1.17;;;0.80;;
49962;SDS011;36180;57.678;11.910;2023-05-02T08:28:03;1.48;;;0.90;;
49962;SDS011;36180;57.678;11.910;2023-05-02T08:30:31;4.15;;;1.10;;
49962;SDS011;36180;57.678;11.910;2023-05-02T08:32:58;2.83;;;1.40;;
49962;SDS011;36180;57.678;11.910;2023-05-02T08:35:27;3.30;;;1.52;;
49962;SDS011;36180;57.678;11.910;2023-05-02T08:37:55;2.72;;;1.65;;
49962;SDS011;36180;57.678;11.910;2023-05-02T08:40:22;3.17;;;1.38;;
49962;SDS011;36180;57.678;11.910;2023-05-02T08:42:50;3.78;;;1.75;;
49962;SDS011;36180;57.678;11.910;2023-05-02T08:45:18;3.53;;;1.70;;
49962;SDS011;36180;57.678;11.910;2023-05-02T08:47:47;1.95;;;1.30;;
49962;SDS011;36180;57.678;11.910;2023-05-02T08:50:15;1.70;;;1.13;;
49962;SDS011;36180;57.678;11.910;2023-05-02T08:52:43;2.72;;;1.40;;
49962;SDS011;36180;57.678;11.910;2023-05-02T08:55:11;1.60;;;1.10;;
49962;SDS011;36180;57.678;11.910;2023-05-02T08:57:39;1.40;;;1.30;;
49962;SDS011;36180;57.678;11.910;2023-05-02T09:00:07;2.10;;;0.98;;
49962;SDS011;36180;57.678;11.910;2023-05-02T09:02:49;3.35;;;1.10;;
49962;SDS011;36180;57.678;11.910;2023-05-02T09:05:21;1.00;;;0.88;;
49962;SDS011;36180;57.678;11.910;2023-05-02T09:07:50;2.35;;;1.02;;
49962;SDS011;36180;57.678;11.910;2023-05-02T09:10:17;4.03;;;1.17;;
49962;SDS011;36180;57.678;11.910;2023-05-02T09:12:44;1.48;;;0.85;;
49962;SDS011;36180;57.678;11.910;2023-05-02T09:15:12;1.05;;;0.90;;
49962;SDS011;36180;57.678;11.910;2023-05-02T09:17:40;2.08;;;1.05;;
49962;SDS011;36180;57.678;11.910;2023-05-02T09:20:10;2.75;;;1.00;;
49962;SDS011;36180;57.678;11.910;2023-05-02T09:22:38;2.88;;;1.10;;
49962;SDS011;36180;57.678;11.910;2023-05-02T09:25:07;1.63;;;0.90;;
49962;SDS011;36180;57.678;11.910;2023-05-02T09:27:47;2.38;;;1.00;;
49962;SDS011;36180;57.678;11.910;2023-05-02T09:30:20;2.08;;;1.20;;
49962;SDS011;36180;57.678;11.910;2023-05-02T09:32:48;1.27;;;1.13;;
49962;SDS011;36180;57.678;11.910;2023-05-02T09:35:21;1.75;;;1.15;;
49962;SDS011;36180;57.678;11.910;2023-05-02T09:37:52;1.13;;;0.82;;
49962;SDS011;36180;57.678;11.910;2023-05-02T09:40:19;1.48;;;1.10;;
49962;SDS011;36180;57.678;11.910;2023-05-02T09:42:47;2.28;;;0.95;;
49962;SDS011;36180;57.678;11.910;2023-05-02T09:45:21;1.90;;;1.00;;
49962;SDS011;36180;57.678;11.910;2023-05-02T09:47:49;5.18;;;1.25;;
49962;SDS011;36180;57.678;11.910;2023-05-02T09:50:33;3.60;;;1.02;;
49962;SDS011;36180;57.678;11.910;2023-05-02T09:53:01;2.03;;;1.00;;
49962;SDS011;36180;57.678;11.910;2023-05-02T09:55:29;1.10;;;0.80;;
49962;SDS011;36180;57.678;11.910;2023-05-02T09:57:57;1.48;;;0.82;;
49962;SDS011;36180;57.678;11.910;2023-05-02T10:00:36;2.63;;;0.70;;
49962;SDS011;36180;57.678;11.910;2023-05-02T10:03:05;3.40;;;0.93;;
49962;SDS011;36180;57.678;11.910;2023-05-02T10:05:34;1.23;;;0.90;;
49962;SDS011;36180;57.678;11.910;2023-05-02T10:08:02;1.25;;;1.10;;
49962;SDS011;36180;57.678;11.910;2023-05-02T10:10:30;3.88;;;1.08;;
49962;SDS011;36180;57.678;11.910;2023-05-02T10:12:59;1.65;;;1.00;;
49962;SDS011;36180;57.678;11.910;2023-05-02T10:15:27;1.13;;;0.77;;
49962;SDS011;36180;57.678;11.910;2023-05-02T10:17:55;2.88;;;0.82;;
49962;SDS011;36180;57.678;11.910;2023-05-02T10:20:24;1.52;;;1.00;;
49962;SDS011;36180;57.678;11.910;2023-05-02T10:22:58;3.17;;;1.10;;
49962;SDS011;36180;57.678;11.910;2023-05-02T10:25:26;3.83;;;1.20;;
49962;SDS011;36180;57.678;11.910;2023-05-02T10:27:55;3.17;;;0.90;;
49962;SDS011;36180;57.678;11.910;2023-05-02T10:30:23;2.25;;;1.08;;
49962;SDS011;36180;57.678;11.910;2023-05-02T10:32:51;2.75;;;1.02;;
49962;SDS011;36180;57.678;11.910;2023-05-02T10:35:20;3.33;;;1.20;;
49962;SDS011;36180;57.678;11.910;2023-05-02T10:37:47;3.03;;;1.00;;
49962;SDS011;36180;57.678;11.910;2023-05-02T10:40:16;1.08;;;0.80;;
49962;SDS011;36180;57.678;11.910;2023-05-02T10:42:45;1.60;;;0.80;;
49962;SDS011;36180;57.678;11.910;2023-05-02T10:45:28;1.05;;;0.80;;
49962;SDS011;36180;57.678;11.910;2023-05-02T10:48:15;1.60;;;0.88;;
49962;SDS011;36180;57.678;11.910;2023-05-02T10:50:44;2.55;;;1.05;;
49962;SDS011;36180;57.678;11.910;2023-05-02T10:53:21;1.65;;;0.80;;
49962;SDS011;36180;57.678;11.910;2023-05-02T10:58:35;2.03;;;0.80;;
49962;SDS011;36180;57.678;11.910;2023-05-02T11:03:58;2.50;;;1.20;;
49962;SDS011;36180;57.678;11.910;2023-05-02T11:06:27;5.03;;;0.98;;
49962;SDS011;36180;57.678;11.910;2023-05-02T11:12:01;2.55;;;0.85;;
49962;SDS011;36180;57.678;11.910;2023-05-02T11:14:45;2.15;;;1.08;;
49962;SDS011;36180;57.678;11.910;2023-05-02T11:17:14;2.72;;;0.95;;
49962;SDS011;36180;57.678;11.910;2023-05-02T11:22:55;2.60;;;0.90;;
49962;SDS011;36180;57.678;11.910;2023-05-02T11:25:30;1.35;;;0.88;;
49962;SDS011;36180;57.678;11.910;2023-05-02T11:28:06;2.30;;;1.00;;
49962;SDS011;36180;57.678;11.910;2023-05-02T11:30:41;4.55;;;0.90;;
49962;SDS011;36180;57.678;11.910;2023-05-02T11:35:54;2.92;;;1.00;;
49962;SDS011;36180;57.678;11.910;2023-05-02T11:38:23;1.58;;;0.70;;
49962;SDS011;36180;57.678;11.910;2023-05-02T11:40:52;1.30;;;0.70;;
49962;SDS011;36180;57.678;11.910;2023-05-02T11:43:22;1.60;;;0.90;;
49962;SDS011;36180;57.678;11.910;2023-05-02T11:45:50;1.45;;;0.80;;
49962;SDS011;36180;57.678;11.910;2023-05-02T11:48:18;1.48;;;0.95;;
49962;SDS011;36180;57.678;11.910;2023-05-02T11:50:47;2.85;;;1.00;;
49962;SDS011;36180;57.678;11.910;2023-05-02T11:53:16;4.22;;;0.90;;
49962;SDS011;36180;57.678;11.910;2023-05-02T11:55:47;2.28;;;1.08;;
49962;SDS011;36180;57.678;11.910;2023-05-02T11:58:16;2.85;;;1.25;;
49962;SDS011;36180;57.678;11.910;2023-05-02T12:00:45;1.75;;;1.00;;
49962;SDS011;36180;57.678;11.910;2023-05-02T12:03:22;2.65;;;0.80;;
49962;SDS011;36180;57.678;11.910;2023-05-02T12:05:53;0.95;;;0.82;;
49962;SDS011;36180;57.678;11.910;2023-05-02T12:08:21;7.15;;;1.17;;
49962;SDS011;36180;57.678;11.910;2023-05-02T12:10:50;1.77;;;0.82;;
49962;SDS011;36180;57.678;11.910;2023-05-02T12:13:19;2.75;;;0.80;;
49962;SDS011;36180;57.678;11.910;2023-05-02T12:15:49;1.85;;;0.90;;
49962;SDS011;36180;57.678;11.910;2023-05-02T12:18:17;2.10;;;0.60;;
49962;SDS011;36180;57.678;11.910;2023-05-02T12:20:47;1.42;;;0.80;;
49962;SDS011;36180;57.678;11.910;2023-05-02T12:23:16;2.80;;;1.05;;
49962;SDS011;36180;57.678;11.910;2023-05-02T12:25:43;2.47;;;0.80;;
49962;SDS011;36180;57.678;11.910;2023-05-02T12:28:10;1.40;;;0.65;;
49962;SDS011;36180;57.678;11.910;2023-05-02T12:30:37;2.15;;;0.80;;
49962;SDS011;36180;57.678;11.910;2023-05-02T12:33:07;1.75;;;0.60;;
49962;SDS011;36180;57.678;11.910;2023-05-02T12:35:34;2.60;;;0.88;;
49962;SDS011;36180;57.678;11.910;2023-05-02T12:38:08;1.73;;;0.68;;
49962;SDS011;36180;57.678;11.910;2023-05-02T12:40:36;0.98;;;0.70;;
49962;SDS011;36180;57.678;11.910;2023-05-02T12:43:04;1.63;;;0.80;;
49962;SDS011;36180;57.678;11.910;2023-05-02T12:45:35;3.17;;;0.90;;
49962;SDS011;36180;57.678;11.910;2023-05-02T12:48:17;2.05;;;0.90;;
49962;SDS011;36180;57.678;11.910;2023-05-02T12:50:48;2.30;;;1.08;;
49962;SDS011;36180;57.678;11.910;2023-05-02T12:53:15;1.73;;;0.98;;
49962;SDS011;36180;57.678;11.910;2023-05-02T12:55:43;2.00;;;0.93;;
49962;SDS011;36180;57.678;11.910;2023-05-02T12:58:11;2.58;;;0.93;;
49962;SDS011;36180;57.678;11.910;2023-05-02T13:00:39;2.58;;;1.00;;
49962;SDS011;36180;57.678;11.910;2023-05-02T13:03:07;1.77;;;0.65;;
49962;SDS011;36180;57.678;11.910;2023-05-02T13:05:35;1.85;;;1.35;;
49962;SDS011;36180;57.678;11.910;2023-05-02T13:08:03;1.50;;;0.90;;
49962;SDS011;36180;57.678;11.910;2023-05-02T13:10:31;3.10;;;0.90;;
49962;SDS011;36180;57.678;11.910;2023-05-02T13:12:58;4.68;;;1.30;;
49962;SDS011;36180;57.678;11.910;2023-05-02T13:15:25;2.55;;;0.98;;
49962;SDS011;36180;57.678;11.910;2023-05-02T13:17:52;2.72;;;1.00;;
49962;SDS011;36180;57.678;11.910;2023-05-02T13:20:20;1.48;;;0.65;;
49962;SDS011;36180;57.678;11.910;2023-05-02T13:22:48;3.03;;;0.85;;
49962;SDS011;36180;57.678;11.910;2023-05-02T13:25:15;4.25;;;0.90;;
49962;SDS011;36180;57.678;11.910;2023-05-02T13:27:42;3.20;;;0.80;;
49962;SDS011;36180;57.678;11.910;2023-05-02T13:30:10;1.52;;;0.95;;
49962;SDS011;36180;57.678;11.910;2023-05-02T13:32:37;2.97;;;0.73;;
49962;SDS011;36180;57.678;11.910;2023-05-02T13:35:05;1.40;;;0.77;;
49962;SDS011;36180;57.678;11.910;2023-05-02T13:37:33;2.45;;;1.00;;
49962;SDS011;36180;57.678;11.910;2023-05-02T13:40:02;2.90;;;1.00;;
49962;SDS011;36180;57.678;11.910;2023-05-02T13:42:29;2.53;;;0.90;;
49962;SDS011;36180;57.678;11.910;2023-05-02T13:44:56;2.55;;;0.90;;
49962;SDS011;36180;57.678;11.910;2023-05-02T13:47:23;3.33;;;1.00;;
49962;SDS011;36180;57.678;11.910;2023-05-02T13:49:50;3.15;;;0.98;;
49962;SDS011;36180;57.678;11.910;2023-05-02T13:52:17;2.20;;;0.82;;
49962;SDS011;36180;57.678;11.910;2023-05-02T13:54:44;1.40;;;0.90;;
49962;SDS011;36180;57.678;11.910;2023-05-02T13:57:13;3.30;;;1.00;;
49962;SDS011;36180;57.678;11.910;2023-05-02T13:59:40;5.90;;;1.00;;
49962;SDS011;36180;57.678;11.910;2023-05-02T14:02:07;2.00;;;1.00;;
49962;SDS011;36180;57.678;11.910;2023-05-02T14:04:34;1.50;;;0.93;;
49962;SDS011;36180;57.678;11.910;2023-05-02T14:07:02;2.63;;;0.90;;
49962;SDS011;36180;57.678;11.910;2023-05-02T14:09:29;2.13;;;1.17;;
49962;SDS011;36180;57.678;11.910;2023-05-02T14:11:56;2.45;;;0.95;;
49962;SDS011;36180;57.678;11.910;2023-05-02T14:14:25;1.58;;;1.10;;
49962;SDS011;36180;57.678;11.910;2023-05-02T14:16:52;2.72;;;1.10;;
49962;SDS011;36180;57.678;11.910;2023-05-02T14:19:20;1.25;;;1.00;;
49962;SDS011;36180;57.678;11.910;2023-05-02T14:21:47;2.38;;;1.05;;
49962;SDS011;36180;57.678;11.910;2023-05-02T14:24:14;2.80;;;0.88;;
49962;SDS011;36180;57.678;11.910;2023-05-02T14:26:42;1.52;;;1.00;;
49962;SDS011;36180;57.678;11.910;2023-05-02T14:29:09;2.08;;;0.82;;
49962;SDS011;36180;57.678;11.910;2023-05-02T14:31:38;1.33;;;0.82;;
49962;SDS011;36180;57.678;11.910;2023-05-02T14:34:05;2.22;;;0.90;;
49962;SDS011;36180;57.678;11.910;2023-05-02T14:36:32;2.65;;;0.90;;
49962;SDS011;36180;57.678;11.910;2023-05-02T14:38:59;2.25;;;0.98;;
49962;SDS011;36180;57.678;11.910;2023-05-02T14:41:26;2.20;;;1.10;;
49962;SDS011;36180;57.678;11.910;2023-05-02T14:43:53;1.98;;;1.08;;
49962;SDS011;36180;57.678;11.910;2023-05-02T14:46:20;3.28;;;1.35;;
49962;SDS011;36180;57.678;11.910;2023-05-02T14:48:49;3.47;;;0.90;;
49962;SDS011;36180;57.678;11.910;2023-05-02T14:51:17;2.38;;;0.85;;
49962;SDS011;36180;57.678;11.910;2023-05-02T14:53:44;4.75;;;1.10;;
49962;SDS011;36180;57.678;11.910;2023-05-02T14:56:13;3.88;;;1.10;;
49962;SDS011;36180;57.678;11.910;2023-05-02T14:58:41;3.50;;;1.10;;
49962;SDS011;36180;57.678;11.910;2023-05-02T15:01:14;3.17;;;1.20;;
49962;SDS011;36180;57.678;11.910;2023-05-02T15:03:42;4.07;;;1.00;;
49962;SDS011;36180;57.678;11.910;2023-05-02T15:06:13;2.72;;;1.02;;